createdAt,value
2019-05-06T00:02:01.733Z,4.40
2019-05-06T00:04:30.120Z,4.87
2019-05-06T00:06:58.594Z,4.50
2019-05-06T00:09:27.118Z,5.77
2019-05-06T00:11:55.670Z,5.07
2019-05-06T00:14:24.232Z,4.30
2019-05-06T00:16:55.140Z,4.57
2019-05-06T00:19:24.662Z,7.23
2019-05-06T00:21:54.008Z,5.13
2019-05-06T00:24:24.639Z,5.13
2019-05-06T00:26:57.815Z,4.63
2019-05-06T00:29:27.731Z,5.77
2019-05-06T00:31:56.295Z,3.97
2019-05-06T00:34:24.799Z,4.57
2019-05-06T00:36:54.536Z,6.33
2019-05-06T00:39:24.641Z,5.67
2019-05-06T00:41:54.743Z,5.80
2019-05-06T00:44:23.914Z,5.77
2019-05-06T00:46:54.509Z,6.33
2019-05-06T00:49:23.781Z,5.50
2019-05-06T00:51:52.265Z,5.20
2019-05-06T00:54:22.325Z,4.80
2019-05-06T00:56:50.779Z,5.80
2019-05-06T00:59:19.347Z,5.73
2019-05-06T01:01:47.747Z,6.37
2019-05-06T01:04:16.222Z,5.03
2019-05-06T01:06:44.688Z,5.60
2019-05-06T01:09:14.871Z,5.40
2019-05-06T01:11:44.939Z,6.43
2019-05-06T01:14:15.016Z,4.87
2019-05-06T01:16:43.950Z,5.70
2019-05-06T01:19:14.126Z,5.50
2019-05-06T01:21:44.558Z,5.43
2019-05-06T01:24:14.657Z,6.80
2019-05-06T01:26:44.399Z,4.63
2019-05-06T01:29:14.588Z,6.00
2019-05-06T01:31:45.792Z,5.00
2019-05-06T01:34:13.768Z,5.63
2019-05-06T01:36:43.733Z,5.53
2019-05-06T01:39:16.309Z,8.30
2019-05-06T01:41:46.413Z,7.47
2019-05-06T01:44:14.812Z,6.27
2019-05-06T01:46:44.732Z,6.10
2019-05-06T01:49:13.772Z,5.00
2019-05-06T01:51:43.779Z,5.90
2019-05-06T01:54:14.124Z,5.03
2019-05-06T01:56:44.397Z,4.90
2019-05-06T01:59:13.960Z,5.33
2019-05-06T02:01:54.881Z,5.37
2019-05-06T02:04:13.879Z,5.80
2019-05-06T02:06:43.779Z,6.83
2019-05-06T02:09:17.347Z,8.77
2019-05-06T02:11:47.902Z,9.70
2019-05-06T02:14:16.240Z,10.83
2019-05-06T02:16:44.621Z,7.57
2019-05-06T02:19:14.826Z,7.20
2019-05-06T02:21:47.745Z,8.40
2019-05-06T02:24:29.689Z,9.63
2019-05-06T02:26:58.075Z,8.27
2019-05-06T02:29:28.100Z,8.37
2019-05-06T02:32:19.874Z,9.83
2019-05-06T02:34:54.656Z,10.17
2019-05-06T02:37:26.772Z,8.07
2019-05-06T02:39:55.202Z,9.37
2019-05-06T02:42:24.035Z,9.47
2019-05-06T02:44:54.108Z,9.93
2019-05-06T02:47:43.004Z,8.47
2019-05-06T02:50:18.130Z,9.90
2019-05-06T02:52:46.548Z,8.80
2019-05-06T02:55:15.219Z,10.87
2019-05-06T02:57:44.214Z,9.03
2019-05-06T03:00:19.057Z,10.87
2019-05-06T03:02:48.344Z,8.80
2019-05-06T03:05:17.258Z,8.47
2019-05-06T03:07:45.786Z,8.60
2019-05-06T03:10:15.290Z,8.73
2019-05-06T03:12:43.852Z,10.20
2019-05-06T03:15:16.261Z,9.47
2019-05-06T03:17:43.563Z,9.30
2019-05-06T03:20:15.447Z,9.87
2019-05-06T03:22:48.252Z,12.13
2019-05-06T03:28:37.025Z,11.43
2019-05-06T03:31:07.272Z,10.77
2019-05-06T03:33:57.035Z,9.97
2019-05-06T03:36:15.682Z,8.13
2019-05-06T03:38:36.007Z,8.33
2019-05-06T03:41:04.480Z,7.43
2019-05-06T03:43:33.892Z,8.33
2019-05-06T03:46:09.840Z,9.50
2019-05-06T03:48:44.194Z,9.17
2019-05-06T03:51:13.677Z,7.47
2019-05-06T03:53:44.237Z,6.77
2019-05-06T03:56:19.258Z,5.93
2019-05-06T03:58:45.149Z,7.23
2019-05-06T04:01:13.680Z,9.83
2019-05-06T04:03:47.446Z,9.33
2019-05-06T04:06:13.871Z,10.10
2019-05-06T04:08:43.931Z,10.67
2019-05-06T04:11:15.481Z,9.20
2019-05-06T04:13:45.248Z,10.97
2019-05-06T04:16:15.479Z,10.20
2019-05-06T04:18:53.960Z,10.83
2019-05-06T04:21:24.137Z,11.17
2019-05-06T04:24:00.164Z,11.47
2019-05-06T04:26:49.052Z,9.33
2019-05-06T04:29:17.608Z,16.63
2019-05-06T04:31:46.479Z,11.60
2019-05-06T04:34:19.420Z,10.97
2019-05-06T04:36:45.417Z,11.13
2019-05-06T04:39:13.819Z,9.33
2019-05-06T04:41:43.423Z,9.60
2019-05-06T04:44:13.962Z,7.90
2019-05-06T04:46:44.338Z,7.17
2019-05-06T04:49:14.966Z,8.30
2019-05-06T04:51:43.196Z,8.77
2019-05-06T04:54:13.501Z,8.93
2019-05-06T04:56:43.881Z,10.77
2019-05-06T04:59:23.077Z,12.80
2019-05-06T05:02:13.201Z,10.10
2019-05-06T05:04:43.350Z,10.47
2019-05-06T05:07:12.801Z,10.47
2019-05-06T05:09:43.002Z,11.13
2019-05-06T05:12:13.995Z,10.53
2019-05-06T05:14:51.924Z,14.57
2019-05-06T05:17:33.146Z,13.07
2019-05-06T05:20:02.149Z,14.93
2019-05-06T05:22:32.504Z,14.00
2019-05-06T05:25:03.255Z,13.27
2019-05-06T05:27:32.928Z,14.70
2019-05-06T05:30:02.074Z,16.67
2019-05-06T05:32:32.128Z,15.80
2019-05-06T05:35:02.021Z,13.50
2019-05-06T05:37:32.817Z,14.80
2019-05-06T05:40:03.065Z,16.03
2019-05-06T05:42:33.203Z,13.13
2019-05-06T05:45:02.675Z,14.50
2019-05-06T05:47:33.161Z,13.80
2019-05-06T05:50:03.363Z,11.73
2019-05-06T05:52:32.914Z,12.93
2019-05-06T05:55:02.821Z,12.33
2019-05-06T05:57:32.203Z,12.27
2019-05-06T06:00:03.713Z,13.00
2019-05-06T06:02:33.231Z,13.10
2019-05-06T06:05:02.602Z,12.77
2019-05-06T06:07:32.753Z,15.00
2019-05-06T06:10:06.961Z,11.73
2019-05-06T06:12:35.538Z,13.53
2019-05-06T06:15:07.315Z,14.40
2019-05-06T06:17:51.936Z,11.40
2019-05-06T06:20:37.686Z,14.17
2019-05-06T06:23:07.750Z,16.83
2019-05-06T06:25:36.840Z,13.83
2019-05-06T06:28:05.485Z,11.13
2019-05-06T06:30:35.677Z,13.57
2019-05-06T06:33:04.319Z,10.90
2019-05-06T06:35:37.030Z,11.10
2019-05-06T06:38:07.139Z,10.17
2019-05-06T06:40:35.714Z,12.70
2019-05-06T06:43:06.119Z,11.97
2019-05-06T06:45:34.972Z,8.67
2019-05-06T06:48:03.481Z,10.73
2019-05-06T06:50:32.972Z,9.43
2019-05-06T06:53:03.029Z,13.17
2019-05-06T06:55:31.899Z,8.33
2019-05-06T06:58:19.372Z,10.60
2019-05-06T07:01:05.711Z,9.30
2019-05-06T07:03:38.879Z,8.07
2019-05-06T07:06:08.940Z,10.13
2019-05-06T07:08:37.920Z,8.53
2019-05-06T07:11:06.494Z,8.17
2019-05-06T07:13:35.055Z,7.97
2019-05-06T07:16:03.734Z,8.53
2019-05-06T07:18:33.240Z,7.07
2019-05-06T07:21:05.362Z,6.53
2019-05-06T07:23:35.254Z,10.57
2019-05-06T07:26:03.652Z,10.63
2019-05-06T07:28:32.781Z,6.63
2019-05-06T07:31:17.484Z,8.43
2019-05-06T07:33:33.567Z,9.97
2019-05-06T07:36:02.191Z,10.03
2019-05-06T07:38:32.544Z,10.37
2019-05-06T07:41:08.421Z,9.10
2019-05-06T07:43:44.114Z,7.57
2019-05-06T07:46:29.086Z,9.17
2019-05-06T07:48:57.575Z,9.13
2019-05-06T07:51:25.977Z,9.77
2019-05-06T07:53:54.526Z,7.87
2019-05-06T07:56:22.923Z,7.07
2019-05-06T07:58:53.058Z,7.87
2019-05-06T08:01:25.498Z,8.17
2019-05-06T08:03:53.232Z,10.70
2019-05-06T08:06:22.659Z,9.20
2019-05-06T08:08:53.704Z,8.30
2019-05-06T08:11:22.286Z,11.77
2019-05-06T08:13:52.795Z,10.03
2019-05-06T08:16:22.612Z,8.93
2019-05-06T08:18:52.435Z,9.57
2019-05-06T08:21:23.229Z,9.30
2019-05-06T08:23:53.033Z,11.93
2019-05-06T08:26:22.503Z,9.17
2019-05-06T08:28:52.663Z,7.30
2019-05-06T08:31:22.566Z,8.27
2019-05-06T08:33:52.447Z,11.70
2019-05-06T08:36:28.488Z,6.90
2019-05-06T08:39:02.799Z,9.37
2019-05-06T08:41:33.211Z,8.53
2019-05-06T08:44:02.593Z,6.93
2019-05-06T08:46:33.456Z,6.47
2019-05-06T08:49:03.008Z,7.60
2019-05-06T08:51:33.347Z,10.07
2019-05-06T08:54:13.382Z,9.07
2019-05-06T08:56:42.666Z,10.50
2019-05-06T08:59:11.153Z,10.83
2019-05-06T09:01:43.960Z,11.87
2019-05-06T09:04:15.922Z,9.57
2019-05-06T09:06:43.316Z,13.37
2019-05-06T09:09:13.042Z,9.90
2019-05-06T09:11:43.144Z,10.07
2019-05-06T09:14:13.733Z,10.73
2019-05-06T09:16:43.827Z,11.97
2019-05-06T09:19:12.998Z,12.07
2019-05-06T09:21:45.694Z,9.77
2019-05-06T09:24:12.810Z,9.30
2019-05-06T09:26:43.280Z,9.60
2019-05-06T09:29:16.043Z,8.53
2019-05-06T09:31:46.078Z,10.67
2019-05-06T09:34:19.158Z,12.67
2019-05-06T09:36:52.629Z,9.13
2019-05-06T09:39:19.358Z,8.70
2019-05-06T09:41:48.863Z,7.37
2019-05-06T09:44:17.932Z,8.63
2019-05-06T09:46:46.337Z,9.27
2019-05-06T09:49:16.410Z,10.00
2019-05-06T09:51:44.919Z,8.80
2019-05-06T09:54:17.640Z,7.27
2019-05-06T09:56:56.577Z,7.80
2019-05-06T09:59:25.082Z,6.67
2019-05-06T10:01:53.550Z,8.90
2019-05-06T10:04:22.067Z,6.27
2019-05-06T10:06:57.349Z,8.40
2019-05-06T10:09:24.664Z,8.30
2019-05-06T10:11:52.542Z,4.33
2019-05-06T10:14:23.202Z,5.77
2019-05-06T10:16:52.390Z,6.67
2019-05-06T10:19:22.580Z,6.00
2019-05-06T10:21:53.108Z,6.53
2019-05-06T10:24:21.463Z,5.40
2019-05-06T10:26:52.332Z,6.77
2019-05-06T10:29:34.049Z,6.07
2019-05-06T10:32:12.787Z,7.70
2019-05-06T10:34:43.313Z,4.67
2019-05-06T10:37:33.514Z,6.07
2019-05-06T10:40:13.481Z,7.17
2019-05-06T10:42:52.294Z,8.23
2019-05-06T10:45:32.446Z,7.43
2019-05-06T10:48:02.384Z,5.20
2019-05-06T10:50:32.576Z,6.23
2019-05-06T10:53:23.044Z,6.23
2019-05-06T10:55:55.486Z,5.07
2019-05-06T10:58:24.148Z,6.40
2019-05-06T11:00:54.533Z,6.00
2019-05-06T11:03:27.454Z,3.80
2019-05-06T11:05:55.077Z,3.43
2019-05-06T11:08:23.498Z,4.93
2019-05-06T11:10:53.508Z,5.80
2019-05-06T11:13:24.442Z,5.27
2019-05-06T11:15:55.427Z,4.60
2019-05-06T11:18:23.424Z,5.30
2019-05-06T11:20:55.761Z,4.10
2019-05-06T11:23:22.223Z,6.60
2019-05-06T11:25:52.646Z,4.77
2019-05-06T11:28:38.192Z,4.03
2019-05-06T11:31:09.380Z,4.43
2019-05-06T11:33:42.544Z,5.03
2019-05-06T11:36:15.187Z,5.83
2019-05-06T11:38:43.255Z,5.33
2019-05-06T11:41:13.141Z,4.97
2019-05-06T11:43:42.862Z,3.97
2019-05-06T11:46:12.303Z,6.97
2019-05-06T11:48:43.081Z,4.43
2019-05-06T11:51:12.932Z,5.73
2019-05-06T11:53:41.477Z,3.00
2019-05-06T11:56:09.891Z,3.70
2019-05-06T11:58:42.507Z,4.47
2019-05-06T12:01:26.725Z,3.67
2019-05-06T12:03:55.130Z,4.07
2019-05-06T12:06:23.626Z,3.30
2019-05-06T12:08:52.533Z,3.47
2019-05-06T12:11:23.396Z,3.77
2019-05-06T12:13:53.260Z,4.30
2019-05-06T12:16:25.973Z,5.50
2019-05-06T12:18:52.908Z,4.40
2019-05-06T12:21:23.157Z,4.20
2019-05-06T12:23:53.815Z,3.27
2019-05-06T12:26:21.898Z,3.67
2019-05-06T12:28:52.939Z,2.83
2019-05-06T12:31:23.112Z,2.50
2019-05-06T12:33:53.030Z,2.97
2019-05-06T12:36:21.901Z,3.57
2019-05-06T12:39:08.503Z,2.03
2019-05-06T12:41:47.712Z,5.00
2019-05-06T12:44:16.532Z,4.23
2019-05-06T12:46:46.574Z,5.23
2019-05-06T12:49:15.022Z,3.60
2019-05-06T12:51:43.506Z,5.00
2019-05-06T12:54:12.907Z,2.53
2019-05-06T12:56:42.510Z,3.57
2019-05-06T12:59:12.702Z,3.60
2019-05-06T13:01:44.879Z,2.87
2019-05-06T13:04:13.685Z,5.13
2019-05-06T13:06:46.159Z,4.27
2019-05-06T13:09:12.760Z,3.43
2019-05-06T13:11:43.181Z,3.90
2019-05-06T13:14:12.783Z,5.43
2019-05-06T13:16:42.514Z,3.83
2019-05-06T13:19:12.166Z,4.30
2019-05-06T13:21:42.232Z,5.40
2019-05-06T13:24:12.145Z,3.80
2019-05-06T13:26:43.095Z,5.60
2019-05-06T13:29:18.704Z,4.47
2019-05-06T13:31:47.091Z,5.47
2019-05-06T13:34:19.752Z,6.40
2019-05-06T13:36:48.353Z,6.57
2019-05-06T13:39:16.860Z,4.00
2019-05-06T13:41:45.409Z,4.73
2019-05-06T13:44:15.526Z,3.73
2019-05-06T13:46:45.656Z,4.57
2019-05-06T13:49:22.813Z,4.07
2019-05-06T13:51:52.917Z,4.73
2019-05-06T13:54:22.418Z,4.07
2019-05-06T13:56:52.124Z,4.47
2019-05-06T13:59:20.649Z,3.80
2019-05-06T14:01:52.688Z,2.97
2019-05-06T14:04:23.912Z,3.10
2019-05-06T14:06:52.780Z,4.37
2019-05-06T14:09:31.254Z,5.03
2019-05-06T14:11:52.554Z,3.03
2019-05-06T14:14:22.665Z,4.43
2019-05-06T14:16:53.412Z,5.87
2019-05-06T14:19:22.513Z,3.00
2019-05-06T14:21:52.263Z,3.63
2019-05-06T14:24:22.175Z,4.37
2019-05-06T14:27:04.375Z,3.40
2019-05-06T14:29:34.493Z,8.83
2019-05-06T14:32:02.979Z,4.33
2019-05-06T14:34:32.485Z,4.73
2019-05-06T14:37:01.067Z,4.57
2019-05-06T14:39:49.080Z,3.90
2019-05-06T14:42:03.900Z,4.10
2019-05-06T14:44:32.643Z,4.50
2019-05-06T14:47:02.812Z,3.20
2019-05-06T14:49:32.560Z,3.17
2019-05-06T14:52:02.768Z,3.87
2019-05-06T14:54:33.074Z,6.73
2019-05-06T14:57:05.783Z,3.53
2019-05-06T14:59:34.343Z,2.93
2019-05-06T15:02:02.825Z,3.40
2019-05-06T15:04:32.445Z,4.47
2019-05-06T15:07:02.133Z,6.40
2019-05-06T15:09:32.983Z,3.93
2019-05-06T15:12:02.347Z,4.83
2019-05-06T15:14:33.100Z,4.37
2019-05-06T15:17:02.215Z,4.90
2019-05-06T15:19:30.903Z,5.03
2019-05-06T15:21:59.330Z,4.03
2019-05-06T15:24:27.719Z,2.70
2019-05-06T15:26:56.211Z,4.00
2019-05-06T15:29:24.731Z,2.43
2019-05-06T15:31:54.885Z,4.37
2019-05-06T15:34:24.931Z,4.37
2019-05-06T15:37:02.363Z,4.97
2019-05-06T15:39:32.683Z,4.70
2019-05-06T15:42:01.332Z,3.57
2019-05-06T15:44:31.830Z,3.83
2019-05-06T15:47:00.299Z,3.17
2019-05-06T15:49:28.784Z,3.57
2019-05-06T15:51:57.362Z,1.73
2019-05-06T15:54:25.783Z,2.83
2019-05-06T15:56:54.192Z,3.87
2019-05-06T15:59:23.098Z,2.47
2019-05-06T16:01:53.121Z,3.00
2019-05-06T16:04:22.953Z,2.30
2019-05-06T16:06:52.950Z,3.33
2019-05-06T16:09:23.475Z,4.80
2019-05-06T16:11:53.398Z,3.47
2019-05-06T16:14:22.974Z,7.97
2019-05-06T16:16:52.802Z,2.87
2019-05-06T16:19:22.795Z,3.73
2019-05-06T16:21:53.859Z,2.83
2019-05-06T16:24:23.905Z,3.97
2019-05-06T16:26:52.793Z,3.97
2019-05-06T16:29:22.933Z,4.63
2019-05-06T16:31:51.879Z,5.93
2019-05-06T16:34:22.657Z,4.17
2019-05-06T16:36:50.634Z,4.17
2019-05-06T16:39:19.105Z,5.13
2019-05-06T16:41:47.740Z,5.60
2019-05-06T16:44:16.254Z,4.93
2019-05-06T16:46:44.690Z,4.80
2019-05-06T16:49:14.194Z,3.60
2019-05-06T16:51:44.214Z,4.37
2019-05-06T16:54:12.966Z,3.97
2019-05-06T16:56:45.537Z,3.13
2019-05-06T16:59:13.954Z,2.70
2019-05-06T17:01:44.017Z,3.07
2019-05-06T17:04:14.579Z,4.10
2019-05-06T17:06:44.938Z,2.73
2019-05-06T17:09:20.782Z,3.47
2019-05-06T17:11:43.675Z,2.73
2019-05-06T17:14:12.414Z,4.37
2019-05-06T17:16:42.405Z,3.03
2019-05-06T17:19:12.711Z,5.93
2019-05-06T17:21:42.324Z,4.13
2019-05-06T17:24:12.859Z,3.23
2019-05-06T17:26:42.611Z,6.07
2019-05-06T17:29:14.081Z,4.03
2019-05-06T17:32:02.570Z,4.63
2019-05-06T17:34:32.495Z,5.17
2019-05-06T17:37:05.638Z,2.47
2019-05-06T17:39:34.405Z,2.67
2019-05-06T17:42:02.834Z,4.60
2019-05-06T17:44:32.677Z,2.30
2019-05-06T17:47:02.825Z,3.43
2019-05-06T17:49:32.864Z,4.27
2019-05-06T17:52:09.031Z,2.93
2019-05-06T17:54:37.443Z,3.60
2019-05-06T17:57:05.907Z,4.13
2019-05-06T17:59:37.345Z,3.43
2019-05-06T18:02:08.936Z,3.57
2019-05-06T18:04:37.398Z,6.77
2019-05-06T18:07:06.002Z,3.57
2019-05-06T18:09:34.422Z,4.37
2019-05-06T18:12:03.265Z,5.00
2019-05-06T18:14:33.154Z,3.03
2019-05-06T18:17:03.670Z,5.93
2019-05-06T18:19:33.164Z,4.83
2019-05-06T18:22:02.622Z,4.53
2019-05-06T18:24:33.315Z,10.30
2019-05-06T18:27:02.659Z,5.07
2019-05-06T18:29:33.445Z,5.67
2019-05-06T18:32:03.491Z,5.57
2019-05-06T18:37:05.860Z,4.57
2019-05-06T18:39:34.447Z,3.90
2019-05-06T18:42:15.595Z,5.77
2019-05-06T18:44:33.570Z,5.00
2019-05-06T18:47:02.815Z,4.30
2019-05-06T18:49:33.580Z,10.57
2019-05-06T18:52:02.145Z,9.67
2019-05-06T18:54:33.594Z,8.20
2019-05-06T18:57:04.333Z,4.53
2019-05-06T18:59:32.935Z,5.47
2019-05-06T19:02:02.150Z,6.63
2019-05-06T19:04:44.203Z,6.03
2019-05-06T19:07:16.118Z,6.33
2019-05-06T19:10:03.183Z,6.60
2019-05-06T19:12:39.489Z,6.07
2019-05-06T19:15:03.344Z,5.97
2019-05-06T19:17:33.577Z,9.73
2019-05-06T19:20:02.723Z,6.47
2019-05-06T19:22:32.832Z,8.27
2019-05-06T19:25:02.684Z,6.80
2019-05-06T19:27:32.837Z,7.17
2019-05-06T19:30:02.349Z,7.22
2019-05-06T19:32:34.904Z,12.07
2019-05-06T19:35:02.750Z,8.97
2019-05-06T19:37:32.852Z,7.40
2019-05-06T19:40:02.861Z,5.97
2019-05-06T19:42:45.600Z,7.97
2019-05-06T19:45:02.493Z,4.50
2019-05-06T19:47:31.967Z,6.43
2019-05-06T19:50:02.806Z,5.30
2019-05-06T19:52:32.654Z,5.27
2019-05-06T19:55:03.131Z,4.90
2019-05-06T19:57:32.360Z,4.77
2019-05-06T20:03:37.118Z,8.00
2019-05-06T20:06:07.248Z,4.80
2019-05-06T20:08:46.519Z,5.57
2019-05-06T20:11:25.396Z,5.23
2019-05-06T20:13:53.924Z,7.13
2019-05-06T20:16:22.993Z,5.03
2019-05-06T20:18:52.582Z,6.70
2019-05-06T20:21:22.909Z,10.43
2019-05-06T20:23:52.623Z,12.53
2019-05-06T20:26:21.944Z,11.87
2019-05-06T20:28:52.630Z,9.47
2019-05-06T20:31:22.604Z,8.40
2019-05-06T20:33:52.844Z,9.40
2019-05-06T20:36:22.570Z,7.83
2019-05-06T20:38:51.223Z,7.43
2019-05-06T20:41:23.469Z,7.10
2019-05-06T20:43:51.959Z,6.67
2019-05-06T20:46:21.992Z,5.77
2019-05-06T20:48:52.846Z,5.60
2019-05-06T20:51:21.905Z,5.83
2019-05-06T20:53:50.409Z,5.57
2019-05-06T20:56:19.280Z,4.73
2019-05-06T20:58:47.681Z,5.80
2019-05-06T21:01:16.087Z,4.10
2019-05-06T21:03:44.586Z,5.60
2019-05-06T21:06:13.311Z,4.63
2019-05-06T21:08:42.210Z,6.17
2019-05-06T21:11:24.888Z,6.60
2019-05-06T21:13:43.133Z,5.47
2019-05-06T21:16:12.921Z,5.40
2019-05-06T21:18:41.929Z,4.97
2019-05-06T21:21:10.514Z,4.63
2019-05-06T21:23:38.931Z,4.90
2019-05-06T21:26:07.329Z,5.73
2019-05-06T21:28:35.958Z,4.80
2019-05-06T21:31:04.465Z,5.90
2019-05-06T21:33:33.073Z,6.83
2019-05-06T21:36:03.003Z,4.80
2019-05-06T21:38:31.724Z,5.83
2019-05-06T21:41:02.022Z,5.70
2019-05-06T21:43:43.715Z,6.80
2019-05-06T21:46:02.405Z,6.70
2019-05-06T21:48:30.979Z,5.80
2019-05-06T21:50:59.391Z,6.10
2019-05-06T21:53:27.897Z,7.30
2019-05-06T21:55:56.362Z,8.37
2019-05-06T21:58:24.842Z,11.60
2019-05-06T22:01:02.402Z,12.20
2019-05-06T22:03:32.706Z,8.40
2019-05-06T22:06:02.288Z,14.33
2019-05-06T22:08:32.672Z,14.83
2019-05-06T22:11:02.908Z,13.10
2019-05-06T22:13:33.213Z,11.67
2019-05-06T22:16:02.353Z,10.33
2019-05-06T22:18:31.782Z,11.33
2019-05-06T22:21:07.406Z,14.57
2019-05-06T22:23:53.301Z,19.63
2019-05-06T22:26:23.419Z,17.13
2019-05-06T22:28:52.642Z,14.00
2019-05-06T22:31:22.185Z,11.53
2019-05-06T22:33:51.519Z,12.20
2019-05-06T22:36:22.481Z,16.90
2019-05-06T22:38:50.178Z,15.77
2019-05-06T22:41:18.662Z,12.77
2019-05-06T22:43:47.177Z,10.03
2019-05-06T22:46:18.235Z,12.80
2019-05-06T22:48:45.711Z,10.57
2019-05-06T22:51:14.104Z,8.77
2019-05-06T22:53:42.716Z,11.47
2019-05-06T22:56:12.935Z,11.10
2019-05-06T22:58:42.737Z,11.60
2019-05-06T23:01:15.769Z,9.80
2019-05-06T23:03:45.808Z,8.00
2019-05-06T23:06:14.183Z,7.60
2019-05-06T23:08:43.336Z,9.73
2019-05-06T23:11:13.337Z,8.87
2019-05-06T23:13:44.079Z,6.80
2019-05-06T23:16:12.864Z,10.13
2019-05-06T23:18:42.922Z,10.87
2019-05-06T23:21:11.764Z,16.20
2019-05-06T23:23:43.423Z,14.20
2019-05-06T23:26:18.815Z,17.27
2019-05-06T23:28:47.861Z,21.60
2019-05-06T23:31:16.367Z,15.03
2019-05-06T23:33:45.043Z,12.77
2019-05-06T23:36:13.812Z,10.33
2019-05-06T23:39:18.284Z,8.60
2019-05-06T23:42:22.815Z,6.57
2019-05-06T23:45:27.375Z,5.57
2019-05-06T23:48:32.000Z,7.53
2019-05-06T23:51:36.377Z,6.93
2019-05-06T23:54:42.795Z,5.20
2019-05-06T23:57:10.189Z,7.00
2019-05-06T23:59:38.665Z,5.20
